createdAt,value
2017-10-27T00:00:39.797Z,13.39
2017-10-27T00:01:20.369Z,13.42
2017-10-27T00:02:00.942Z,13.39
2017-10-27T00:02:41.521Z,13.38
2017-10-27T00:03:22.088Z,13.42
2017-10-27T00:04:02.665Z,13.44
2017-10-27T00:04:43.267Z,13.47
2017-10-27T00:05:23.850Z,13.39
2017-10-27T00:06:04.436Z,13.41
2017-10-27T00:06:45.050Z,13.53
2017-10-27T00:07:25.639Z,13.41
2017-10-27T00:08:06.234Z,13.46
2017-10-27T00:08:46.817Z,13.41
2017-10-27T00:09:27.403Z,13.5
2017-10-27T00:10:07.987Z,13.44
2017-10-27T00:10:48.568Z,13.41
2017-10-27T00:11:29.142Z,13.39
2017-10-27T00:12:09.758Z,13.38
2017-10-27T00:12:50.367Z,13.44
2017-10-27T00:13:30.941Z,13.47
2017-10-27T00:14:11.530Z,13.38
2017-10-27T00:14:52.131Z,13.41
2017-10-27T00:15:32.706Z,13.44
2017-10-27T00:16:13.303Z,13.47
2017-10-27T00:16:53.870Z,13.44
2017-10-27T00:17:34.480Z,13.5
2017-10-27T00:18:15.080Z,13.39
2017-10-27T00:18:55.646Z,13.47
2017-10-27T00:19:36.216Z,13.38
2017-10-27T00:20:16.791Z,13.47
2017-10-27T00:20:57.361Z,13.39
2017-10-27T00:21:37.975Z,13.33
2017-10-27T00:22:18.566Z,13.41
2017-10-27T00:22:59.141Z,13.39
2017-10-27T00:23:39.734Z,13.38
2017-10-27T00:24:20.345Z,13.42
2017-10-27T00:25:00.924Z,13.44
2017-10-27T00:25:41.486Z,13.42
2017-10-27T00:26:22.125Z,13.52
2017-10-27T00:27:02.744Z,13.47
2017-10-27T00:27:43.374Z,13.38
2017-10-27T00:28:23.935Z,13.46
2017-10-27T00:29:04.523Z,13.47
2017-10-27T00:29:45.115Z,13.44
2017-10-27T00:30:25.702Z,13.31
2017-10-27T00:31:06.268Z,13.44
2017-10-27T00:31:46.872Z,13.41
2017-10-27T00:32:27.464Z,13.49
2017-10-27T00:33:08.032Z,13.46
2017-10-27T00:33:48.637Z,13.46
2017-10-27T00:34:29.200Z,13.38
2017-10-27T00:35:09.780Z,13.35
2017-10-27T00:35:50.363Z,13.38
2017-10-27T00:36:30.931Z,13.42
2017-10-27T00:37:11.518Z,13.38
2017-10-27T00:37:52.097Z,13.37
2017-10-27T00:38:32.668Z,13.49
2017-10-27T00:39:13.256Z,13.44
2017-10-27T00:39:53.836Z,13.44
2017-10-27T00:40:34.405Z,13.41
2017-10-27T00:41:14.970Z,13.42
2017-10-27T00:41:55.563Z,13.46
2017-10-27T00:42:36.162Z,13.28
2017-10-27T00:43:16.734Z,13.28
2017-10-27T00:43:57.319Z,13.38
2017-10-27T00:44:37.887Z,13.33
2017-10-27T00:45:18.464Z,13.42
2017-10-27T00:45:59.034Z,13.37
2017-10-27T00:46:39.630Z,13.41
2017-10-27T00:47:20.200Z,13.42
2017-10-27T00:48:00.774Z,13.31
2017-10-27T00:48:41.362Z,13.31
2017-10-27T00:49:21.955Z,13.38
2017-10-27T00:50:02.546Z,13.38
2017-10-27T00:50:43.098Z,13.39
2017-10-27T00:51:23.694Z,13.38
2017-10-27T00:52:04.266Z,13.35
2017-10-27T00:52:44.853Z,13.39
2017-10-27T00:53:25.444Z,13.39
2017-10-27T00:54:06.039Z,13.33
2017-10-27T00:54:46.624Z,13.39
2017-10-27T00:55:27.222Z,13.46
2017-10-27T00:56:07.796Z,13.31
2017-10-27T00:56:48.383Z,13.33
2017-10-27T00:57:28.960Z,13.33
2017-10-27T00:58:09.544Z,13.33
2017-10-27T00:58:50.144Z,13.37
2017-10-27T00:59:30.719Z,13.3
2017-10-27T01:00:11.292Z,13.38
2017-10-27T01:00:51.872Z,13.37
2017-10-27T01:01:32.444Z,13.41
2017-10-27T01:02:13.045Z,13.31
2017-10-27T01:02:53.629Z,13.38
2017-10-27T01:03:34.212Z,13.39
2017-10-27T01:04:14.786Z,13.39
2017-10-27T01:04:55.377Z,13.41
2017-10-27T01:05:35.966Z,13.33
2017-10-27T01:06:16.536Z,13.33
2017-10-27T01:06:57.116Z,13.37
2017-10-27T01:07:37.732Z,13.33
2017-10-27T01:08:18.308Z,13.31
2017-10-27T01:08:58.887Z,13.3
2017-10-27T01:09:39.500Z,13.2
2017-10-27T01:10:20.073Z,13.35
2017-10-27T01:11:00.668Z,13.33
2017-10-27T01:11:41.259Z,13.33
2017-10-27T01:12:21.838Z,13.31
2017-10-27T01:13:02.424Z,13.19
2017-10-27T01:13:43.010Z,13.38
2017-10-27T01:14:23.607Z,13.31
2017-10-27T01:15:04.182Z,13.15
2017-10-27T01:15:44.750Z,13.31
2017-10-27T01:16:25.334Z,13.27
2017-10-27T01:17:05.894Z,13.22
2017-10-27T01:17:46.476Z,13.2
2017-10-27T01:18:27.048Z,13.19
2017-10-27T01:19:07.629Z,13.27
2017-10-27T01:19:48.196Z,13.27
2017-10-27T01:20:28.768Z,13.25
2017-10-27T01:21:09.369Z,13.23
2017-10-27T01:21:49.938Z,13.23
2017-10-27T01:22:30.504Z,13.3
2017-10-27T01:23:11.066Z,13.28
2017-10-27T01:23:51.653Z,13.2
2017-10-27T01:24:32.218Z,13.28
2017-10-27T01:25:12.798Z,13.23
2017-10-27T01:25:53.400Z,13.22
2017-10-27T01:26:33.971Z,13.2
2017-10-27T01:27:14.563Z,13.25
2017-10-27T01:27:55.153Z,13.22
2017-10-27T01:28:35.729Z,13.19
2017-10-27T01:29:16.293Z,13.31
2017-10-27T01:29:56.881Z,13.31
2017-10-27T01:30:37.449Z,13.19
2017-10-27T01:31:18.021Z,13.31
2017-10-27T01:31:58.592Z,13.23
2017-10-27T01:32:39.168Z,13.3
2017-10-27T01:33:19.760Z,13.22
2017-10-27T01:34:00.334Z,13.2
2017-10-27T01:34:40.916Z,13.37
2017-10-27T01:35:21.511Z,13.35
2017-10-27T01:36:02.078Z,13.33
2017-10-27T01:36:42.656Z,13.33
2017-10-27T01:37:23.241Z,13.22
2017-10-27T01:38:03.790Z,13.25
2017-10-27T01:38:44.447Z,13.2
2017-10-27T01:39:24.999Z,13.23
2017-10-27T01:40:05.582Z,13.23
2017-10-27T01:40:46.217Z,13.2
2017-10-27T01:41:26.825Z,13.22
2017-10-27T01:42:07.442Z,13.19
2017-10-27T01:42:48.019Z,13.25
2017-10-27T01:43:28.591Z,13.22
2017-10-27T01:44:09.162Z,13.19
2017-10-27T01:44:49.745Z,13.15
2017-10-27T01:45:30.343Z,13.11
2017-10-27T01:46:10.929Z,13.12
2017-10-27T01:46:51.540Z,13.11
2017-10-27T01:47:32.127Z,13.08
2017-10-27T01:48:12.717Z,13.12
2017-10-27T01:48:53.333Z,13.09
2017-10-27T01:49:33.950Z,13.13
2017-10-27T01:50:14.533Z,13.22
2017-10-27T01:50:55.095Z,13.15
2017-10-27T01:51:35.684Z,13.18
2017-10-27T01:52:16.258Z,13.12
2017-10-27T01:52:56.844Z,13.11
2017-10-27T01:53:37.421Z,13.23
2017-10-27T01:54:18.037Z,13.11
2017-10-27T01:54:58.629Z,13.09
2017-10-27T01:55:39.217Z,13.08
2017-10-27T01:56:19.794Z,13.11
2017-10-27T01:57:00.389Z,13.08
2017-10-27T01:57:40.956Z,13.12
2017-10-27T01:58:21.537Z,13.12
2017-10-27T01:59:02.105Z,13.19
2017-10-27T01:59:42.708Z,13.15
2017-10-27T02:00:23.300Z,13.15
2017-10-27T02:01:03.901Z,13.09
2017-10-27T02:01:44.471Z,13.09
2017-10-27T02:02:25.034Z,13.08
2017-10-27T02:03:05.622Z,13.08
2017-10-27T02:03:46.201Z,13.08
2017-10-27T02:04:26.778Z,13.04
2017-10-27T02:05:07.383Z,13.13
2017-10-27T02:05:47.963Z,13.12
2017-10-27T02:06:28.586Z,13.09
2017-10-27T02:07:09.168Z,13.09
2017-10-27T02:07:49.779Z,13.08
2017-10-27T02:08:30.349Z,13.03
2017-10-27T02:09:10.957Z,13.05
2017-10-27T02:09:51.538Z,13.09
2017-10-27T02:10:32.113Z,13.04
2017-10-27T02:11:12.682Z,13.11
2017-10-27T02:11:53.254Z,13.09
2017-10-27T02:12:33.825Z,13.08
2017-10-27T02:13:14.396Z,13.04
2017-10-27T02:13:54.975Z,13.04
2017-10-27T02:14:35.545Z,13.05
2017-10-27T02:15:16.126Z,13.04
2017-10-27T02:15:56.711Z,13.08
2017-10-27T02:16:37.275Z,13.12
2017-10-27T02:17:17.847Z,13.11
2017-10-27T02:17:58.419Z,13.05
2017-10-27T02:18:39.010Z,13.09
2017-10-27T02:19:19.597Z,13.09
2017-10-27T02:20:00.175Z,13.15
2017-10-27T02:20:40.771Z,13.15
2017-10-27T02:21:21.398Z,13.18
2017-10-27T02:22:01.966Z,13.15
2017-10-27T02:22:42.541Z,13.18
2017-10-27T02:23:23.116Z,13.16
2017-10-27T02:24:03.708Z,13.15
2017-10-27T02:24:44.259Z,13.15
2017-10-27T02:25:24.829Z,13.12
2017-10-27T02:26:05.427Z,13.13
2017-10-27T02:26:46.034Z,13.16
2017-10-27T02:27:26.628Z,13.11
2017-10-27T02:28:07.204Z,13.11
2017-10-27T02:28:47.771Z,13.09
2017-10-27T02:29:28.353Z,13.12
2017-10-27T02:30:08.939Z,13.12
2017-10-27T02:30:49.525Z,13.11
2017-10-27T02:31:30.093Z,13.08
2017-10-27T02:32:10.656Z,13.16
2017-10-27T02:32:51.242Z,13.16
2017-10-27T02:33:31.849Z,13.08
2017-10-27T02:34:12.422Z,13.08
2017-10-27T02:34:53.027Z,13.08
2017-10-27T02:35:33.612Z,13.05
2017-10-27T02:36:14.201Z,13.09
2017-10-27T02:36:54.809Z,13.09
2017-10-27T02:37:35.396Z,13.03
2017-10-27T02:38:15.964Z,13.08
2017-10-27T02:38:56.547Z,13.04
2017-10-27T02:39:37.128Z,13.05
2017-10-27T02:40:17.769Z,13.05
2017-10-27T02:40:58.323Z,13.05
2017-10-27T02:41:38.895Z,13.08
2017-10-27T02:42:19.504Z,13.09
2017-10-27T02:43:00.097Z,13.03
2017-10-27T02:43:40.707Z,13.01
2017-10-27T02:44:21.309Z,13.05
2017-10-27T02:45:01.868Z,13.01
2017-10-27T02:45:42.438Z,13.03
2017-10-27T02:46:23.011Z,13.05
2017-10-27T02:47:03.577Z,13.04
2017-10-27T02:47:44.196Z,13.03
2017-10-27T02:48:24.819Z,13.09
2017-10-27T02:49:05.404Z,13.08
2017-10-27T02:49:46.034Z,13.08
2017-10-27T02:50:26.623Z,13.04
2017-10-27T02:51:07.198Z,13.04
2017-10-27T02:51:47.771Z,13.04
2017-10-27T02:52:28.366Z,13.11
2017-10-27T02:53:08.950Z,13.05
2017-10-27T02:53:49.527Z,13.05
2017-10-27T02:54:30.098Z,13.09
2017-10-27T02:55:10.677Z,13.05
2017-10-27T02:55:51.249Z,13.08
2017-10-27T02:56:31.816Z,13.08
2017-10-27T02:57:12.398Z,13.08
2017-10-27T02:57:52.965Z,13.03
2017-10-27T02:58:33.534Z,13.05
2017-10-27T02:59:14.098Z,13.01
2017-10-27T02:59:54.672Z,12.94
2017-10-27T03:00:35.243Z,12.98
2017-10-27T03:01:15.817Z,12.98
2017-10-27T03:01:56.398Z,12.94
2017-10-27T03:02:36.979Z,13
2017-10-27T03:03:17.544Z,12.98
2017-10-27T03:03:58.118Z,12.95
2017-10-27T03:04:38.693Z,12.95
2017-10-27T03:05:19.262Z,12.98
2017-10-27T03:05:59.835Z,13
2017-10-27T03:06:40.408Z,13.01
2017-10-27T03:07:20.982Z,12.97
2017-10-27T03:08:01.545Z,13
2017-10-27T03:08:42.171Z,12.93
2017-10-27T03:09:22.756Z,12.93
2017-10-27T03:10:03.359Z,12.95
2017-10-27T03:10:43.883Z,12.83
2017-10-27T03:11:24.453Z,12.87
2017-10-27T03:12:05.024Z,12.95
2017-10-27T03:12:45.593Z,12.95
2017-10-27T03:13:26.141Z,12.97
2017-10-27T03:14:06.741Z,12.9
2017-10-27T03:14:47.308Z,12.98
2017-10-27T03:15:27.886Z,13
2017-10-27T03:16:08.459Z,13
2017-10-27T03:16:49.030Z,13.01
2017-10-27T03:17:29.611Z,13
2017-10-27T03:18:10.171Z,12.91
2017-10-27T03:18:50.749Z,12.95
2017-10-27T03:19:31.337Z,12.94
2017-10-27T03:20:11.915Z,12.91
2017-10-27T03:20:52.503Z,12.97
2017-10-27T03:21:33.077Z,12.94
2017-10-27T03:22:13.648Z,13
2017-10-27T03:22:54.247Z,12.87
2017-10-27T03:23:34.820Z,12.95
2017-10-27T03:24:15.414Z,12.9
2017-10-27T03:24:55.999Z,12.9
2017-10-27T03:25:36.583Z,12.91
2017-10-27T03:26:17.359Z,12.93
2017-10-27T03:26:58.314Z,12.98
2017-10-27T03:27:38.961Z,12.95
2017-10-27T03:28:19.558Z,12.91
2017-10-27T03:29:00.138Z,12.87
2017-10-27T03:29:40.717Z,12.87
2017-10-27T03:30:21.297Z,12.83
2017-10-27T03:31:01.868Z,12.91
2017-10-27T03:31:42.473Z,12.9
2017-10-27T03:32:23.097Z,12.85
2017-10-27T03:33:03.755Z,12.87
2017-10-27T03:33:44.307Z,12.82
2017-10-27T03:34:24.898Z,12.95
2017-10-27T03:35:05.501Z,12.93
2017-10-27T03:35:46.060Z,12.93
2017-10-27T03:36:26.686Z,12.91
2017-10-27T03:37:07.242Z,12.91
2017-10-27T03:37:47.829Z,12.9
2017-10-27T03:38:28.411Z,12.82
2017-10-27T03:39:08.993Z,12.87
2017-10-27T03:39:49.573Z,12.95
2017-10-27T03:40:30.171Z,12.91
2017-10-27T03:41:10.831Z,12.9
2017-10-27T03:41:51.421Z,12.85
2017-10-27T03:42:31.996Z,12.95
2017-10-27T03:43:12.561Z,12.83
2017-10-27T03:43:53.130Z,12.95
2017-10-27T03:44:33.716Z,12.87
2017-10-27T03:45:14.287Z,12.87
2017-10-27T03:45:54.886Z,12.85
2017-10-27T03:46:35.499Z,12.86
2017-10-27T03:47:16.091Z,12.85
2017-10-27T03:47:56.714Z,12.85
2017-10-27T03:48:37.326Z,12.86
2017-10-27T03:49:17.907Z,12.86
2017-10-27T03:49:58.479Z,12.82
2017-10-27T03:50:39.059Z,12.82
2017-10-27T03:51:19.640Z,12.83
2017-10-27T03:52:00.219Z,12.83
2017-10-27T03:52:40.832Z,12.86
2017-10-27T03:53:21.424Z,12.83
2017-10-27T03:54:02.018Z,12.83
2017-10-27T03:54:42.590Z,12.8
2017-10-27T03:55:23.191Z,12.83
2017-10-27T03:56:03.773Z,12.79
2017-10-27T03:56:44.366Z,12.82
2017-10-27T03:57:24.942Z,12.75
2017-10-27T03:58:05.506Z,12.73
2017-10-27T03:58:46.072Z,12.73
2017-10-27T03:59:26.645Z,12.75
2017-10-27T04:00:07.220Z,12.72
2017-10-27T04:00:47.796Z,12.76
2017-10-27T04:01:28.413Z,12.76
2017-10-27T04:02:08.978Z,12.64
2017-10-27T04:02:49.563Z,12.61
2017-10-27T04:03:30.154Z,12.6
2017-10-27T04:04:10.725Z,12.78
2017-10-27T04:04:51.276Z,12.72
2017-10-27T04:05:31.857Z,12.73
2017-10-27T04:06:12.437Z,12.75
2017-10-27T04:06:53.019Z,12.72
2017-10-27T04:07:33.596Z,12.68
2017-10-27T04:08:14.180Z,12.75
2017-10-27T04:08:55.043Z,12.72
2017-10-27T04:09:35.616Z,12.75
2017-10-27T04:10:16.201Z,12.75
2017-10-27T04:10:56.785Z,12.72
2017-10-27T04:11:37.375Z,12.76
2017-10-27T04:12:18.000Z,12.75
2017-10-27T04:12:58.664Z,12.75
2017-10-27T04:13:39.235Z,12.78
2017-10-27T04:14:19.819Z,12.75
2017-10-27T04:15:00.403Z,12.75
2017-10-27T04:15:41.012Z,12.76
2017-10-27T04:16:21.577Z,12.73
2017-10-27T04:17:02.149Z,12.75
2017-10-27T04:17:42.728Z,12.76
2017-10-27T04:18:23.297Z,12.86
2017-10-27T04:19:03.881Z,12.7
2017-10-27T04:19:44.504Z,12.72
2017-10-27T04:20:25.074Z,12.7
2017-10-27T04:21:05.636Z,12.82
2017-10-27T04:21:46.227Z,12.83
2017-10-27T04:22:26.810Z,12.82
2017-10-27T04:23:07.400Z,12.86
2017-10-27T04:23:47.970Z,12.79
2017-10-27T04:24:28.544Z,12.82
2017-10-27T04:25:09.115Z,12.8
2017-10-27T04:25:49.702Z,12.73
2017-10-27T04:26:30.298Z,12.76
2017-10-27T04:27:10.845Z,12.83
2017-10-27T04:27:51.428Z,12.82
2017-10-27T04:28:32.061Z,12.82
2017-10-27T04:29:12.639Z,12.8
2017-10-27T04:29:53.332Z,12.79
2017-10-27T04:30:34.040Z,12.73
2017-10-27T04:31:14.653Z,12.75
2017-10-27T04:31:55.178Z,12.72
2017-10-27T04:32:35.747Z,12.7
2017-10-27T04:33:16.349Z,12.75
2017-10-27T04:33:56.929Z,12.79
2017-10-27T04:34:37.504Z,12.72
2017-10-27T04:35:18.074Z,12.7
2017-10-27T04:35:58.638Z,12.76
2017-10-27T04:36:39.241Z,12.76
2017-10-27T04:37:19.818Z,12.67
2017-10-27T04:38:01.185Z,12.73
2017-10-27T04:38:41.795Z,12.73
2017-10-27T04:39:22.408Z,12.61
2017-10-27T04:40:03.333Z,12.58
2017-10-27T04:40:43.851Z,12.62
2017-10-27T04:41:24.427Z,12.6
2017-10-27T04:42:05.007Z,12.61
2017-10-27T04:42:45.595Z,12.65
2017-10-27T04:43:26.205Z,12.62
2017-10-27T04:44:06.798Z,12.67
2017-10-27T04:44:47.431Z,12.58
2017-10-27T04:45:28.062Z,12.61
2017-10-27T04:46:08.650Z,12.75
2017-10-27T04:46:49.232Z,12.76
2017-10-27T04:47:29.801Z,12.75
2017-10-27T04:48:10.448Z,12.76
2017-10-27T04:48:51.040Z,12.79
2017-10-27T04:49:31.747Z,12.7
2017-10-27T04:50:12.333Z,12.79
2017-10-27T04:50:52.918Z,12.8
2017-10-27T04:51:33.505Z,12.75
2017-10-27T04:52:14.173Z,12.75
2017-10-27T04:52:55.207Z,12.7
2017-10-27T04:53:36.028Z,12.73
2017-10-27T04:54:16.613Z,12.78
2017-10-27T04:54:57.198Z,12.76
2017-10-27T04:55:37.818Z,12.75
2017-10-27T04:56:18.406Z,12.72
2017-10-27T04:56:58.988Z,12.75
2017-10-27T04:57:39.601Z,12.73
2017-10-27T04:58:20.126Z,12.76
2017-10-27T04:59:00.696Z,12.72
2017-10-27T04:59:41.280Z,12.76
2017-10-27T05:00:21.881Z,12.82
2017-10-27T05:01:02.447Z,12.78
2017-10-27T05:01:43.018Z,12.72
2017-10-27T05:02:23.602Z,12.76
2017-10-27T05:03:04.183Z,12.72
2017-10-27T05:03:44.759Z,12.75
2017-10-27T05:04:25.334Z,12.75
2017-10-27T05:05:05.959Z,12.72
2017-10-27T05:05:46.507Z,12.73
2017-10-27T05:06:27.120Z,12.73
2017-10-27T05:07:07.700Z,12.68
2017-10-27T05:07:48.277Z,12.57
2017-10-27T05:08:28.878Z,12.57
2017-10-27T05:09:09.472Z,12.64
2017-10-27T05:09:50.052Z,12.6
2017-10-27T05:10:30.638Z,12.62
2017-10-27T05:11:11.215Z,12.57
2017-10-27T05:11:51.841Z,12.6
2017-10-27T05:12:32.409Z,12.67
2017-10-27T05:13:12.980Z,12.61
2017-10-27T05:13:53.581Z,12.61
2017-10-27T05:14:34.164Z,12.58
2017-10-27T05:15:14.724Z,12.64
2017-10-27T05:15:55.317Z,12.61
2017-10-27T05:16:35.888Z,12.61
2017-10-27T05:17:16.458Z,12.65
2017-10-27T05:17:57.036Z,12.67
2017-10-27T05:18:37.662Z,12.7
2017-10-27T05:19:18.241Z,12.6
2017-10-27T05:19:58.814Z,12.62
2017-10-27T05:20:39.381Z,12.62
2017-10-27T05:21:19.966Z,12.64
2017-10-27T05:22:00.554Z,12.61
2017-10-27T05:22:41.138Z,12.65
2017-10-27T05:23:21.731Z,12.57
2017-10-27T05:24:02.295Z,12.62
2017-10-27T05:24:42.874Z,12.61
2017-10-27T05:25:23.457Z,12.55
2017-10-27T05:26:04.039Z,12.55
2017-10-27T05:26:44.664Z,12.53
2017-10-27T05:27:25.247Z,12.47
2017-10-27T05:28:05.828Z,12.53
2017-10-27T05:28:46.514Z,12.47
2017-10-27T05:29:27.503Z,12.49
2017-10-27T05:30:08.066Z,12.5
2017-10-27T05:30:48.668Z,12.49
2017-10-27T05:31:29.271Z,12.49
2017-10-27T05:32:09.841Z,12.43
2017-10-27T05:32:50.405Z,12.45
2017-10-27T05:33:30.990Z,12.45
2017-10-27T05:34:11.576Z,12.46
2017-10-27T05:34:52.187Z,12.49
2017-10-27T05:35:32.782Z,12.42
2017-10-27T05:36:13.387Z,12.4
2017-10-27T05:36:53.975Z,12.43
2017-10-27T05:37:34.544Z,12.45
2017-10-27T05:38:15.159Z,12.47
2017-10-27T05:38:55.743Z,12.45
2017-10-27T05:39:36.323Z,12.43
2017-10-27T05:40:16.918Z,12.43
2017-10-27T05:40:57.490Z,12.37
2017-10-27T05:41:38.091Z,12.37
2017-10-27T05:42:18.666Z,12.37
2017-10-27T05:42:59.255Z,12.39
2017-10-27T05:43:39.831Z,12.32
2017-10-27T05:44:20.413Z,12.27
2017-10-27T05:45:00.995Z,12.31
2017-10-27T05:45:41.595Z,12.31
2017-10-27T05:46:22.210Z,12.32
2017-10-27T05:47:02.817Z,12.39
2017-10-27T05:47:43.385Z,12.37
2017-10-27T05:48:23.966Z,12.36
2017-10-27T05:49:04.552Z,12.36
2017-10-27T05:49:45.200Z,12.35
2017-10-27T05:50:25.852Z,12.4
2017-10-27T05:51:06.473Z,12.32
2017-10-27T05:51:47.164Z,12.49
2017-10-27T05:52:27.734Z,12.43
2017-10-27T05:53:08.308Z,12.47
2017-10-27T05:53:48.876Z,12.43
2017-10-27T05:54:29.468Z,12.39
2017-10-27T05:55:10.075Z,12.45
2017-10-27T05:55:50.659Z,12.42
2017-10-27T05:56:31.279Z,12.5
2017-10-27T05:57:11.863Z,12.46
2017-10-27T05:57:52.451Z,12.4
2017-10-27T05:58:33.022Z,12.43
2017-10-27T05:59:13.764Z,12.49
2017-10-27T05:59:54.331Z,12.42
2017-10-27T06:00:34.910Z,12.45
2017-10-27T06:01:15.501Z,12.46
2017-10-27T06:01:56.130Z,12.37
2017-10-27T06:02:36.719Z,12.36
2017-10-27T06:03:17.322Z,12.35
2017-10-27T06:03:57.909Z,12.42
2017-10-27T06:04:38.503Z,12.39
2017-10-27T06:05:19.085Z,12.35
2017-10-27T06:05:59.639Z,12.39
2017-10-27T06:06:40.211Z,12.35
2017-10-27T06:07:20.784Z,12.39
2017-10-27T06:08:01.487Z,12.35
2017-10-27T06:08:42.051Z,12.37
2017-10-27T06:09:22.619Z,12.43
2017-10-27T06:10:03.195Z,12.36
2017-10-27T06:10:43.796Z,12.37
2017-10-27T06:11:24.384Z,12.32
2017-10-27T06:12:04.971Z,12.35
2017-10-27T06:12:45.606Z,12.39
2017-10-27T06:13:26.198Z,12.42
2017-10-27T06:14:06.760Z,12.43
2017-10-27T06:14:47.319Z,12.43
2017-10-27T06:15:27.897Z,12.42
2017-10-27T06:16:08.490Z,12.42
2017-10-27T06:16:49.056Z,12.39
2017-10-27T06:17:29.628Z,12.42
2017-10-27T06:18:10.186Z,12.37
2017-10-27T06:18:50.833Z,12.45
2017-10-27T06:19:31.378Z,12.43
2017-10-27T06:20:12.185Z,12.49
2017-10-27T06:20:52.780Z,12.43
2017-10-27T06:21:33.372Z,12.47
2017-10-27T06:22:13.958Z,12.43
2017-10-27T06:22:54.580Z,12.39
2017-10-27T06:23:35.164Z,12.47
2017-10-27T06:24:15.740Z,12.49
2017-10-27T06:24:56.317Z,12.42
2017-10-27T06:25:36.882Z,12.46
2017-10-27T06:26:17.461Z,12.46
2017-10-27T06:26:58.049Z,12.4
2017-10-27T06:27:38.629Z,12.37
2017-10-27T06:28:19.241Z,12.43
2017-10-27T06:28:59.857Z,12.43
2017-10-27T06:29:40.388Z,12.35
2017-10-27T06:30:20.972Z,12.37
2017-10-27T06:31:01.582Z,12.35
2017-10-27T06:31:42.154Z,12.28
2017-10-27T06:32:22.776Z,12.27
2017-10-27T06:33:03.327Z,12.37
2017-10-27T06:33:43.924Z,12.29
2017-10-27T06:34:24.549Z,12.32
2017-10-27T06:35:05.119Z,12.27
2017-10-27T06:35:45.698Z,12.31
2017-10-27T06:36:26.281Z,12.32
2017-10-27T06:37:06.882Z,12.35
2017-10-27T06:37:47.499Z,12.35
2017-10-27T06:38:28.059Z,12.31
2017-10-27T06:39:08.662Z,12.28
2017-10-27T06:39:49.245Z,12.27
2017-10-27T06:40:29.878Z,12.27
2017-10-27T06:41:10.474Z,12.28
2017-10-27T06:41:51.022Z,12.31
2017-10-27T06:42:31.592Z,12.32
2017-10-27T06:43:12.198Z,12.36
2017-10-27T06:43:52.788Z,12.27
2017-10-27T06:44:33.363Z,12.28
2017-10-27T06:45:13.943Z,12.31
2017-10-27T06:45:54.523Z,12.25
2017-10-27T06:46:35.112Z,12.29
2017-10-27T06:47:15.697Z,12.31
2017-10-27T06:47:56.263Z,12.36
2017-10-27T06:48:36.843Z,12.2
2017-10-27T06:49:17.480Z,12.21
2017-10-27T06:49:58.080Z,12.21
2017-10-27T06:50:38.665Z,12.21
2017-10-27T06:51:19.246Z,12.24
2017-10-27T06:51:59.844Z,12.22
2017-10-27T06:52:40.448Z,12.22
2017-10-27T06:53:21.031Z,12.32
2017-10-27T06:54:01.604Z,12.25
2017-10-27T06:54:42.211Z,12.28
2017-10-27T06:55:22.798Z,12.31
2017-10-27T06:56:03.409Z,12.36
2017-10-27T06:56:43.992Z,12.32
2017-10-27T06:57:24.578Z,12.35
2017-10-27T06:58:05.152Z,12.35
2017-10-27T06:58:45.779Z,12.29
2017-10-27T06:59:26.348Z,12.35
2017-10-27T07:00:06.923Z,12.37
2017-10-27T07:00:47.501Z,12.37
2017-10-27T07:01:28.089Z,12.37
2017-10-27T07:02:08.663Z,12.37
2017-10-27T07:02:49.240Z,12.28
2017-10-27T07:03:29.812Z,12.35
2017-10-27T07:04:10.397Z,12.35
2017-10-27T07:04:50.986Z,12.39
2017-10-27T07:05:31.561Z,12.35
2017-10-27T07:06:12.174Z,12.36
2017-10-27T07:06:52.779Z,12.36
2017-10-27T07:07:33.343Z,12.37
2017-10-27T07:08:13.961Z,12.4
2017-10-27T07:08:54.532Z,12.39
2017-10-27T07:09:35.117Z,12.36
2017-10-27T07:10:15.715Z,12.37
2017-10-27T07:10:56.283Z,12.35
2017-10-27T07:11:36.908Z,12.39
2017-10-27T07:12:17.495Z,12.42
2017-10-27T07:12:58.060Z,12.45
2017-10-27T07:13:38.669Z,12.46
2017-10-27T07:14:19.243Z,12.46
2017-10-27T07:14:59.832Z,12.49
2017-10-27T07:15:40.423Z,12.37
2017-10-27T07:16:21.025Z,12.43
2017-10-27T07:17:01.640Z,12.35
2017-10-27T07:17:42.331Z,12.4
2017-10-27T07:18:22.852Z,12.37
2017-10-27T07:19:03.439Z,12.43
2017-10-27T07:19:44.036Z,12.43
2017-10-27T07:20:24.690Z,12.42
2017-10-27T07:21:05.245Z,12.43
2017-10-27T07:21:45.792Z,12.47
2017-10-27T07:22:26.366Z,12.49
2017-10-27T07:23:06.968Z,12.49
2017-10-27T07:23:47.585Z,12.49
2017-10-27T07:24:28.192Z,12.58
2017-10-27T07:25:08.793Z,12.54
2017-10-27T07:25:49.414Z,12.57
2017-10-27T07:26:30.037Z,12.53
2017-10-27T07:27:10.633Z,12.6
2017-10-27T07:27:51.215Z,12.58
2017-10-27T07:28:31.802Z,12.54
2017-10-27T07:29:12.368Z,12.53
2017-10-27T07:29:52.982Z,12.53
2017-10-27T07:30:33.606Z,12.54
2017-10-27T07:31:14.230Z,12.55
2017-10-27T07:31:54.809Z,12.55
2017-10-27T07:32:35.410Z,12.57
2017-10-27T07:33:16.013Z,12.53
2017-10-27T07:33:56.600Z,12.55
2017-10-27T07:34:37.173Z,12.54
2017-10-27T07:35:17.759Z,12.55
2017-10-27T07:35:58.386Z,12.57
2017-10-27T07:36:38.959Z,12.46
2017-10-27T07:37:19.550Z,12.45
2017-10-27T07:38:00.114Z,12.5
2017-10-27T07:38:40.725Z,12.46
2017-10-27T07:39:21.344Z,12.47
2017-10-27T07:40:01.932Z,12.54
2017-10-27T07:40:42.568Z,12.47
2017-10-27T07:41:23.103Z,12.53
2017-10-27T07:42:03.670Z,12.45
2017-10-27T07:42:44.257Z,12.55
2017-10-27T07:43:24.857Z,12.45
2017-10-27T07:44:05.444Z,12.5
2017-10-27T07:44:46.021Z,12.53
2017-10-27T07:45:26.607Z,12.54
2017-10-27T07:46:07.299Z,12.47
2017-10-27T07:46:47.793Z,12.45
2017-10-27T07:47:28.358Z,12.54
2017-10-27T07:48:08.941Z,12.45
2017-10-27T07:48:49.533Z,12.5
2017-10-27T07:49:30.125Z,12.5
2017-10-27T07:50:10.714Z,12.47
2017-10-27T07:50:51.334Z,12.49
2017-10-27T07:51:31.924Z,12.49
2017-10-27T07:52:12.596Z,12.5
2017-10-27T07:52:53.284Z,12.49
2017-10-27T07:53:33.785Z,12.45
2017-10-27T07:54:14.391Z,12.47
2017-10-27T07:54:55.032Z,12.49
2017-10-27T07:55:35.681Z,12.47
2017-10-27T07:56:16.400Z,12.54
2017-10-27T07:56:56.974Z,12.46
2017-10-27T07:57:37.574Z,12.47
2017-10-27T07:58:18.186Z,12.54
2017-10-27T07:58:58.774Z,12.54
2017-10-27T07:59:39.501Z,12.49
2017-10-27T08:00:20.048Z,12.57
2017-10-27T08:01:00.640Z,12.58
2017-10-27T08:01:41.242Z,12.54
2017-10-27T08:02:21.910Z,12.49
2017-10-27T08:03:02.514Z,12.57
2017-10-27T08:03:43.105Z,12.57
2017-10-27T08:04:23.691Z,12.54
2017-10-27T08:05:04.281Z,12.61
2017-10-27T08:05:44.925Z,12.54
2017-10-27T08:06:25.523Z,12.53
2017-10-27T08:07:06.111Z,12.45
2017-10-27T08:07:46.713Z,12.45
2017-10-27T08:08:27.292Z,12.46
2017-10-27T08:09:07.898Z,12.47
2017-10-27T08:09:48.483Z,12.47
2017-10-27T08:10:29.078Z,12.43
2017-10-27T08:11:09.649Z,12.45
2017-10-27T08:11:50.237Z,12.42
2017-10-27T08:12:30.854Z,12.42
2017-10-27T08:13:11.480Z,12.45
2017-10-27T08:13:52.078Z,12.45
2017-10-27T08:14:32.663Z,12.42
2017-10-27T08:15:13.332Z,12.4
2017-10-27T08:15:53.957Z,12.43
2017-10-27T08:16:34.549Z,12.4
2017-10-27T08:17:15.158Z,12.5
2017-10-27T08:17:55.816Z,12.47
2017-10-27T08:18:36.381Z,12.43
2017-10-27T08:19:16.953Z,12.5
2017-10-27T08:19:57.521Z,12.47
2017-10-27T08:20:38.088Z,12.47
2017-10-27T08:21:18.704Z,12.47
2017-10-27T08:21:59.287Z,12.42
2017-10-27T08:22:39.866Z,12.42
2017-10-27T08:23:20.433Z,12.42
2017-10-27T08:24:01.035Z,12.43
2017-10-27T08:24:41.660Z,12.49
2017-10-27T08:25:22.227Z,12.5
2017-10-27T08:26:02.820Z,12.47
2017-10-27T08:26:43.394Z,12.46
2017-10-27T08:27:23.985Z,12.43
2017-10-27T08:28:04.549Z,12.54
2017-10-27T08:28:45.150Z,12.45
2017-10-27T08:29:25.717Z,12.4
2017-10-27T08:30:06.334Z,12.43
2017-10-27T08:30:46.906Z,12.39
2017-10-27T08:31:27.578Z,12.49
2017-10-27T08:32:08.173Z,12.45
2017-10-27T08:32:48.714Z,12.46
2017-10-27T08:33:29.409Z,12.47
2017-10-27T08:34:09.980Z,12.45
2017-10-27T08:34:50.628Z,12.53
2017-10-27T08:35:31.210Z,12.45
2017-10-27T08:36:11.817Z,12.54
2017-10-27T08:36:52.406Z,12.45
2017-10-27T08:37:33.003Z,12.47
2017-10-27T08:38:13.642Z,12.47
2017-10-27T08:38:54.205Z,12.47
2017-10-27T08:39:34.827Z,12.46
2017-10-27T08:40:15.497Z,12.42
2017-10-27T08:40:56.028Z,12.49
2017-10-27T08:41:36.680Z,12.46
2017-10-27T08:42:17.272Z,12.46
2017-10-27T08:42:57.863Z,12.45
2017-10-27T08:43:38.485Z,12.54
2017-10-27T08:44:19.127Z,12.55
2017-10-27T08:44:59.726Z,12.62